Terminal Aerodrome Forecast
Issued by NWS Twin Cities, MN

Home | Current Version | Previous Version | Graphics & Text | Print | Product List | Glossary On
Versions: 1 2 3 4 5 6 7 8 9 10 11 12 13 14 15 16 17 18 19 20 21 22 23 24 25 26 27 28 29 30 31
000
FTUS43 KMPX 310400 AAB
TAFMSP
TAF AMD
KMSP 310447Z 3105/0106 12004KT P6SM FEW040 SCT090
     FM311000 13005KT P6SM BKN200
     FM311700 16015G22KT P6SM SCT040 BKN090
     FM312300 17014G22KT P6SM VCTS SCT040CB BKN070
      TEMPO 3123/0103 4SM TSRA BKN030CB OVC070
     FM010400 20008KT P6SM SCT020 BKN080=

USA.gov is the U.S. government's official web portal to all federal, state and local government web resources and services.